Time;durP1;ratioP1;P1;durP2;ratioP2;P2;SDS_P1;SDS_P2;PMS_P1;PMS_P2;Temp;Humidity;BMP_temperature;BMP_pressure;BME280_temperature;BME280_humidity;BME280_pressure;Samples;Min_cycle;Max_cycle;Signal;HPM_P1;HPM_P2
2023/08/12 00:00:08;;;;;;;;;;;;;;;20.19;100.00;101769.00;4985480;28;20418;-73
2023/08/12 00:02:33;;;;;;;;;;;;;;;20.22;100.00;101765.13;4972415;28;19922;-73
2023/08/12 00:04:59;;;;;;;;;;;;;;;20.21;100.00;101764.25;4988658;28;19921;-73
2023/08/12 00:07:24;;;;;;;;;;;;;;;20.17;100.00;101767.47;4984266;28;20435;-73
2023/08/12 00:09:49;;;;;;;;;;;;;;;20.14;100.00;101763.19;4990257;28;20283;-73
2023/08/12 00:12:14;;;;;;;;;;;;;;;20.16;100.00;101760.31;4972517;28;19981;-73
2023/08/12 00:14:40;;;;;;;;;;;;;;;20.13;100.00;101760.63;4987352;28;19927;-73
2023/08/12 00:17:05;;;;;;;;;;;;;;;20.12;100.00;101762.50;4989308;28;20020;-73
2023/08/12 00:19:30;;;;;;;;;;;;;;;20.16;100.00;101758.41;4992828;28;19944;-73
2023/08/12 00:21:55;;;;;;;;;;;;;;;20.12;100.00;101762.50;4987635;28;20020;-74
2023/08/12 00:24:21;;;;;;;;;;;;;;;20.14;100.00;101757.72;4993056;28;19957;-73
2023/08/12 00:26:46;;;;;;;;;;;;;;;20.05;100.00;101758.69;4991783;28;20047;-73
2023/08/12 00:29:11;;;;;;;;;;;;;;;20.06;100.00;101765.88;4974948;28;19925;-73
2023/08/12 00:31:36;;;;;;;;;;;;;;;20.00;100.00;101766.50;4973083;28;19965;-73
2023/08/12 00:34:01;;;;;;;;;;;;;;;20.00;100.00;101761.88;4975706;28;20124;-73
2023/08/12 00:36:27;;;;;;;;;;;;;;;19.98;100.00;101763.94;4990639;28;20002;-74
2023/08/12 00:38:52;;;;;;;;;;;;;;;19.98;100.00;101754.91;4992339;28;20184;-74
2023/08/12 00:41:17;;;;;;;;;;;;;;;19.92;100.00;101757.25;4992953;28;19920;-74
2023/08/12 00:43:42;;;;;;;;;;;;;;;19.96;100.00;101744.16;4991352;28;20031;-74
2023/08/12 00:46:08;;;;;;;;;;;;;;;19.98;100.00;101736.69;4976287;28;20048;-74
2023/08/12 00:48:33;;;;;;;;;;;;;;;19.96;100.00;101732.41;4987311;28;19921;-74
2023/08/12 00:50:58;;;;;;;;;;;;;;;19.98;100.00;101728.50;4973734;28;19928;-73
2023/08/12 00:53:23;;;;;;;;;;;;;;;19.98;100.00;101723.06;4972974;28;19925;-73
2023/08/12 00:55:48;;;;;;;;;;;;;;;19.96;100.00;101729.66;4986191;28;19929;-74
2023/08/12 00:58:14;;;;;;;;;;;;;;;19.96;100.00;101722.38;4976677;28;19976;-73
2023/08/12 01:00:39;;;;;;;;;;;;;;;19.90;100.00;101725.72;4984958;28;20309;-73
2023/08/12 01:03:04;;;;;;;;;;;;;;;19.92;100.00;101723.69;4993273;28;19961;-74
2023/08/12 01:05:29;;;;;;;;;;;;;;;19.95;100.00;101725.22;4985224;28;20044;-74
2023/08/12 01:07:55;;;;;;;;;;;;;;;19.96;100.00;101725.09;4982906;28;21550;-73
2023/08/12 01:10:20;;;;;;;;;;;;;;;19.90;100.00;101721.13;4973777;28;19922;-73
2023/08/12 01:12:51;;;;;;;;;;;;;;;19.93;100.00;101715.34;4976605;28;20303;-73
2023/08/12 01:15:21;;;;;;;;;;;;;;;19.92;100.00;101712.78;4981655;28;20048;-74
2023/08/12 01:17:51;;;;;;;;;;;;;;;19.95;100.00;101706.16;4977648;28;19921;-74
2023/08/12 01:20:17;;;;;;;;;;;;;;;19.90;100.00;101709.38;4991845;28;19925;-75
2023/08/12 01:22:42;;;;;;;;;;;;;;;19.83;100.00;101717.31;4989554;28;19924;-74
2023/08/12 01:25:08;;;;;;;;;;;;;;;19.83;100.00;101708.25;4992140;28;19910;-74
2023/08/12 01:27:34;;;;;;;;;;;;;;;19.83;100.00;101700.09;4989156;28;19923;-75
2023/08/12 01:29:59;;;;;;;;;;;;;;;19.84;100.00;101696.34;4979345;28;19921;-74
2023/08/12 01:32:36;;;;;;;;;;;;;;;19.85;100.00;101685.31;4974701;28;19921;-73
2023/08/12 01:35:05;;;;;;;;;;;;;;;19.86;100.00;101699.78;4986787;28;20403;-73
2023/08/12 01:37:31;;;;;;;;;;;;;;;19.79;100.00;101696.84;4973474;28;19918;-74
2023/08/12 01:39:56;;;;;;;;;;;;;;;19.79;100.00;101684.06;4975199;28;19929;-74
2023/08/12 01:42:22;;;;;;;;;;;;;;;19.84;100.00;101677.28;4990665;28;19925;-74
2023/08/12 01:44:47;;;;;;;;;;;;;;;19.86;100.00;101675.25;4982423;28;19922;-73
2023/08/12 01:47:13;;;;;;;;;;;;;;;19.88;100.00;101667.81;4992635;28;20359;-73
2023/08/12 01:49:38;;;;;;;;;;;;;;;19.91;100.00;101672.94;4990660;28;20479;-74
2023/08/12 01:52:03;;;;;;;;;;;;;;;19.93;100.00;101665.47;4987436;28;19928;-74
2023/08/12 01:54:33;;;;;;;;;;;;;;;19.95;100.00;101665.28;4986856;28;19922;-73
2023/08/12 01:57:00;;;;;;;;;;;;;;;19.97;100.00;101660.53;4959482;28;19921;-73
2023/08/12 01:59:25;;;;;;;;;;;;;;;19.96;100.00;101659.69;4990756;28;19960;-74
2023/08/12 02:01:50;;;;;;;;;;;;;;;19.94;100.00;101659.00;4989112;28;20070;-73
2023/08/12 02:04:15;;;;;;;;;;;;;;;19.92;100.00;101675.47;4978167;28;19928;-73
2023/08/12 02:06:41;;;;;;;;;;;;;;;19.86;100.00;101665.22;4977442;28;19921;-73
2023/08/12 02:09:06;;;;;;;;;;;;;;;19.90;100.00;101660.31;4987931;28;19922;-73
2023/08/12 02:11:31;;;;;;;;;;;;;;;19.95;100.00;101659.84;4977499;28;19932;-74
2023/08/12 02:13:56;;;;;;;;;;;;;;;19.98;100.00;101654.06;4988647;28;19922;-73
2023/08/12 02:16:21;;;;;;;;;;;;;;;19.99;100.00;101653.91;4990188;28;19926;-73
2023/08/12 02:18:47;;;;;;;;;;;;;;;20.03;100.00;101657.16;4974965;28;19928;-73
2023/08/12 02:21:12;;;;;;;;;;;;;;;19.97;100.00;101652.34;4993823;28;19929;-73
2023/08/12 02:23:37;;;;;;;;;;;;;;;19.99;100.00;101653.91;4974939;28;19928;-74
2023/08/12 02:26:03;;;;;;;;;;;;;;;20.02;100.00;101655.44;4992334;28;20347;-73
2023/08/12 02:28:28;;;;;;;;;;;;;;;19.98;100.00;101654.94;4989089;28;19987;-74
2023/08/12 02:30:53;;;;;;;;;;;;;;;19.95;100.00;101649.81;4989835;28;19956;-74
2023/08/12 02:33:18;;;;;;;;;;;;;;;19.94;100.00;101653.53;4989000;28;20025;-74
2023/08/12 02:35:43;;;;;;;;;;;;;;;19.84;100.00;101642.72;4988392;28;19987;-74
2023/08/12 02:38:09;;;;;;;;;;;;;;;19.88;100.00;101643.28;4975131;28;19929;-74
2023/08/12 02:40:34;;;;;;;;;;;;;;;19.91;100.00;101642.97;4990019;28;20393;-74
2023/08/12 02:42:59;;;;;;;;;;;;;;;19.78;100.00;101641.47;4973489;28;20287;-74
2023/08/12 02:45:24;;;;;;;;;;;;;;;19.86;100.00;101640.69;4990342;28;20315;-74
2023/08/12 02:47:49;;;;;;;;;;;;;;;19.81;100.00;101634.00;4994002;28;20276;-74
2023/08/12 02:50:15;;;;;;;;;;;;;;;19.82;100.00;101632.97;5004287;28;20368;-76
2023/08/12 02:52:40;;;;;;;;;;;;;;;19.87;100.00;101625.19;4992583;28;20403;-74
2023/08/12 02:55:05;;;;;;;;;;;;;;;19.87;100.00;101627.91;4975487;28;20001;-74
2023/08/12 02:57:30;;;;;;;;;;;;;;;19.87;100.00;101625.19;4986356;28;19931;-74
2023/08/12 02:59:56;;;;;;;;;;;;;;;19.84;100.00;101620.94;4975137;28;19922;-73
2023/08/12 03:02:21;;;;;;;;;;;;;;;19.83;100.00;101613.78;4991596;28;20044;-74
2023/08/12 03:04:46;;;;;;;;;;;;;;;19.84;100.00;101607.31;4975607;28;20091;-73
2023/08/12 03:07:11;;;;;;;;;;;;;;;19.84;100.00;101606.44;4992340;28;20346;-74
2023/08/12 03:09:36;;;;;;;;;;;;;;;19.87;100.00;101614.28;4990824;28;20368;-74
2023/08/12 03:12:02;;;;;;;;;;;;;;;19.94;100.00;101609.94;4986492;28;19926;-73
2023/08/12 03:14:28;;;;;;;;;;;;;;;19.93;100.00;101600.88;4993491;28;20384;-74
2023/08/12 03:16:54;;;;;;;;;;;;;;;19.89;100.00;101594.06;4989855;28;19970;-73
2023/08/12 03:19:19;;;;;;;;;;;;;;;19.95;100.00;101602.59;4978264;28;19957;-73
2023/08/12 03:21:44;;;;;;;;;;;;;;;19.94;100.00;101593.59;4994011;28;19977;-74
2023/08/12 03:24:09;;;;;;;;;;;;;;;19.93;100.00;101594.59;4992014;28;20001;-73
2023/08/12 03:26:34;;;;;;;;;;;;;;;19.96;100.00;101585.22;4994809;28;20396;-73
2023/08/12 03:29:00;;;;;;;;;;;;;;;19.98;100.00;101588.66;4977347;28;20003;-74
2023/08/12 03:31:25;;;;;;;;;;;;;;;19.96;100.00;101580.66;4990499;28;21096;-74
2023/08/12 03:33:50;;;;;;;;;;;;;;;19.91;100.00;101574.84;4990190;28;20650;-74
2023/08/12 03:36:15;;;;;;;;;;;;;;;19.83;100.00;101574.75;4987646;28;20331;-73
2023/08/12 03:38:41;;;;;;;;;;;;;;;19.84;100.00;101582.78;4976770;28;20323;-74
2023/08/12 03:41:06;;;;;;;;;;;;;;;19.87;100.00;101574.25;4976966;28;19921;-74
2023/08/12 03:43:33;;;;;;;;;;;;;;;19.75;100.00;101567.41;4989547;28;19932;-75
2023/08/12 03:45:58;;;;;;;;;;;;;;;19.76;100.00;101569.09;4990190;28;19922;-75
2023/08/12 03:48:23;;;;;;;;;;;;;;;19.84;100.00;101571.88;4979596;28;20284;-75
2023/08/12 03:50:49;;;;;;;;;;;;;;;19.82;100.00;101568.47;4991555;28;19940;-75
2023/08/12 03:53:14;;;;;;;;;;;;;;;19.81;100.00;101568.59;4990845;28;20817;-74
2023/08/12 03:55:39;;;;;;;;;;;;;;;19.81;100.00;101560.44;4993423;28;19925;-74
2023/08/12 03:58:05;;;;;;;;;;;;;;;19.84;100.00;101552.81;4989985;28;20145;-74
2023/08/12 04:00:30;;;;;;;;;;;;;;;19.82;100.00;101552.13;4994401;28;20307;-74
2023/08/12 04:02:56;;;;;;;;;;;;;;;19.74;100.00;101558.34;4990729;28;19964;-74
2023/08/12 04:05:21;;;;;;;;;;;;;;;19.73;100.00;101553.91;4991488;28;20441;-74
2023/08/12 04:07:46;;;;;;;;;;;;;;;19.74;100.00;101557.50;4987508;28;19965;-74
2023/08/12 04:10:11;;;;;;;;;;;;;;;19.76;100.00;101556.31;4974530;28;20008;-73
2023/08/12 04:12:36;;;;;;;;;;;;;;;19.75;100.00;101545.59;4974830;28;19988;-73
2023/08/12 04:15:05;;;;;;;;;;;;;;;19.73;100.00;101547.63;4976204;28;19959;-74
2023/08/12 04:17:31;;;;;;;;;;;;;;;19.66;100.00;101538.41;4991070;28;20012;-74
2023/08/12 04:19:56;;;;;;;;;;;;;;;19.69;100.00;101548.97;4994583;28;19967;-75
2023/08/12 04:22:21;;;;;;;;;;;;;;;19.69;100.00;101555.28;4994435;28;20027;-75
2023/08/12 04:24:46;;;;;;;;;;;;;;;19.67;100.00;101557.31;4993129;28;20302;-74
2023/08/12 04:27:11;;;;;;;;;;;;;;;19.59;100.00;101555.41;4991104;28;19937;-74
2023/08/12 04:29:37;;;;;;;;;;;;;;;19.64;100.00;101552.19;4988976;28;19926;-75
2023/08/12 04:32:02;;;;;;;;;;;;;;;19.68;100.00;101544.53;4992481;28;19921;-76
2023/08/12 04:34:27;;;;;;;;;;;;;;;19.68;100.00;101539.09;4988459;28;19961;-77
2023/08/12 04:36:52;;;;;;;;;;;;;;;19.74;100.00;101535.72;4978683;28;20079;-74
2023/08/12 04:39:17;;;;;;;;;;;;;;;19.66;100.00;101530.22;4992218;28;20356;-78
2023/08/12 04:41:43;;;;;;;;;;;;;;;19.74;100.00;101527.56;4989713;28;20477;-77
2023/08/12 04:44:08;;;;;;;;;;;;;;;19.78;100.00;101518.03;4981533;28;20442;-77
2023/08/12 04:46:33;;;;;;;;;;;;;;;19.84;100.00;101516.53;4989166;28;20041;-78
2023/08/12 04:48:58;;;;;;;;;;;;;;;19.71;100.00;101522.44;4993875;28;20048;-76
2023/08/12 04:51:24;;;;;;;;;;;;;;;19.65;100.00;101510.31;4992489;28;20229;-76
2023/08/12 04:53:49;;;;;;;;;;;;;;;19.73;100.00;101506.78;4968585;28;20005;-76
2023/08/12 04:56:15;;;;;;;;;;;;;;;19.70;100.00;101510.69;4990819;28;20313;-76
2023/08/12 04:58:40;;;;;;;;;;;;;;;19.68;100.00;101515.44;4981168;28;20331;-75
2023/08/12 05:01:05;;;;;;;;;;;;;;;19.62;100.00;101525.09;4992398;28;19960;-76
2023/08/12 05:03:30;;;;;;;;;;;;;;;19.57;100.00;101521.16;4995283;28;19925;-76
2023/08/12 05:05:55;;;;;;;;;;;;;;;19.59;100.00;101514.56;4994849;28;20028;-75
2023/08/12 05:08:21;;;;;;;;;;;;;;;19.45;100.00;101524.19;4982037;28;19941;-75
2023/08/12 05:10:49;;;;;;;;;;;;;;;19.44;100.00;101514.31;4980600;28;19975;-75
2023/08/12 05:13:14;;;;;;;;;;;;;;;19.42;100.00;101513.63;4979162;28;19921;-77
2023/08/12 05:15:40;;;;;;;;;;;;;;;19.42;100.00;101507.31;4988279;28;20312;-75
2023/08/12 05:18:05;;;;;;;;;;;;;;;19.35;100.00;101507.09;4978444;28;20025;-77
2023/08/12 05:20:30;;;;;;;;;;;;;;;19.25;100.00;101509.06;4991108;28;19976;-75
2023/08/12 05:22:56;;;;;;;;;;;;;;;19.16;100.00;101508.16;4990764;28;20016;-74
2023/08/12 05:25:21;;;;;;;;;;;;;;;19.15;100.00;101515.50;4990196;28;19922;-75
2023/08/12 05:27:46;;;;;;;;;;;;;;;19.08;100.00;101517.13;4977491;28;19921;-76
2023/08/12 05:30:11;;;;;;;;;;;;;;;19.13;100.00;101508.47;4992952;28;20047;-75
2023/08/12 05:32:37;;;;;;;;;;;;;;;19.12;100.00;101499.47;4990497;28;19918;-74
2023/08/12 05:35:02;;;;;;;;;;;;;;;19.15;100.00;101492.84;4989534;28;19943;-74
2023/08/12 05:37:27;;;;;;;;;;;;;;;19.15;100.00;101492.84;4995230;28;20041;-74
2023/08/12 05:39:52;;;;;;;;;;;;;;;19.12;100.00;101488.59;4990372;28;20508;-78
2023/08/12 05:42:18;;;;;;;;;;;;;;;19.10;100.00;101490.63;4988276;28;21094;-75
2023/08/12 05:44:43;;;;;;;;;;;;;;;19.16;100.00;101491.84;4988792;28;20019;-77
2023/08/12 05:47:08;;;;;;;;;;;;;;;19.09;100.00;101497.06;4989272;28;19922;-76
2023/08/12 05:49:33;;;;;;;;;;;;;;;19.06;100.00;101500.13;4993028;28;19913;-76
2023/08/12 05:51:59;;;;;;;;;;;;;;;19.01;100.00;101489.72;4989779;28;20180;-77
2023/08/12 05:54:24;;;;;;;;;;;;;;;19.08;100.00;101480.88;4989667;28;19925;-76
2023/08/12 05:56:49;;;;;;;;;;;;;;;19.09;100.00;101493.47;4993085;28;19926;-77
2023/08/12 05:59:14;;;;;;;;;;;;;;;19.02;100.00;101485.97;4977147;28;19929;-76
2023/08/12 06:01:40;;;;;;;;;;;;;;;18.97;100.00;101484.72;4993052;28;20308;-79
2023/08/12 06:04:05;;;;;;;;;;;;;;;18.98;100.00;101479.16;4989628;28;20031;-78
2023/08/12 06:06:30;;;;;;;;;;;;;;;18.94;100.00;101479.56;4990467;28;19921;-76
2023/08/12 06:08:55;;;;;;;;;;;;;;;18.94;100.00;101485.88;4991029;28;19921;-77
2023/08/12 06:11:20;;;;;;;;;;;;;;;18.88;100.00;101487.38;4987359;28;20235;-76
2023/08/12 06:13:46;;;;;;;;;;;;;;;18.85;100.00;101476.81;4992119;28;19944;-77
2023/08/12 06:16:11;;;;;;;;;;;;;;;18.89;100.00;101475.50;4975640;28;19957;-75
2023/08/12 06:18:36;;;;;;;;;;;;;;;18.83;100.00;101470.69;4978037;28;20307;-75
2023/08/12 06:21:01;;;;;;;;;;;;;;;18.90;100.00;101468.16;4990885;28;20426;-77
2023/08/12 06:23:27;;;;;;;;;;;;;;;18.91;100.00;101469.03;4991220;28;20246;-75
2023/08/12 06:25:52;;;;;;;;;;;;;;;18.94;100.00;101460.53;4990278;28;19917;-75
2023/08/12 06:28:17;;;;;;;;;;;;;;;18.99;100.00;101447.34;4988434;28;19929;-75
2023/08/12 06:30:44;;;;;;;;;;;;;;;18.99;100.00;101452.78;4993344;28;19957;-74
2023/08/12 06:33:09;;;;;;;;;;;;;;;19.05;100.00;101452.13;4992253;28;20213;-74
2023/08/12 06:35:35;;;;;;;;;;;;;;;19.03;100.00;101449.59;4986163;28;19928;-73
2023/08/12 06:38:00;;;;;;;;;;;;;;;18.99;100.00;101450.94;4990714;28;19921;-73
2023/08/12 06:40:26;;;;;;;;;;;;;;;19.03;100.00;101437.84;4988883;28;19921;-76
2023/08/12 06:42:51;;;;;;;;;;;;;;;19.04;100.00;101431.38;4987205;28;20212;-78
2023/08/12 06:45:17;;;;;;;;;;;;;;;19.03;100.00;101433.28;4989943;28;20144;-77
2023/08/12 06:47:42;;;;;;;;;;;;;;;19.05;100.00;101437.69;4993046;28;19964;-76
2023/08/12 06:50:07;;;;;;;;;;;;;;;19.01;100.00;101434.41;4975105;28;20004;-75
2023/08/12 06:52:33;;;;;;;;;;;;;;;19.03;100.00;101435.13;4988311;28;19948;-76
2023/08/12 06:54:58;;;;;;;;;;;;;;;18.99;100.00;101441.88;4988135;28;20379;-78
2023/08/12 06:57:23;;;;;;;;;;;;;;;18.99;100.00;101431.00;4972111;28;19937;-76
2023/08/12 06:59:49;;;;;;;;;;;;;;;19.02;100.00;101431.56;4988668;28;19969;-75
2023/08/12 07:02:14;;;;;;;;;;;;;;;19.01;100.00;101432.56;4975182;28;20637;-76
2023/08/12 07:04:39;;;;;;;;;;;;;;;19.09;100.00;101428.16;4991824;28;20296;-74
2023/08/12 07:07:04;;;;;;;;;;;;;;;19.09;100.00;101431.75;4988369;28;20407;-75
2023/08/12 07:09:29;;;;;;;;;;;;;;;19.16;100.00;101426.50;4984199;28;20063;-76
2023/08/12 07:11:55;;;;;;;;;;;;;;;19.08;100.00;101412.84;4990812;28;20219;-77
2023/08/12 07:14:20;;;;;;;;;;;;;;;19.22;100.00;101414.97;4989523;28;20446;-77
2023/08/12 07:16:45;;;;;;;;;;;;;;;19.26;100.00;101410.94;4973197;28;20453;-77
2023/08/12 07:19:10;;;;;;;;;;;;;;;19.24;100.00;101415.69;4989479;28;19984;-75
2023/08/12 07:21:35;;;;;;;;;;;;;;;19.23;100.00;101413.09;4989670;28;19952;-75
2023/08/12 07:24:01;;;;;;;;;;;;;;;19.27;100.00;101406.31;4992507;28;19969;-75
2023/08/12 07:26:26;;;;;;;;;;;;;;;19.30;100.00;101408.72;4984214;28;20041;-76
2023/08/12 07:28:51;;;;;;;;;;;;;;;19.28;100.00;101411.63;4988487;28;19925;-74
2023/08/12 07:31:17;;;;;;;;;;;;;;;19.31;100.00;101407.72;4987466;28;19959;-77
2023/08/12 07:33:42;;;;;;;;;;;;;;;19.28;100.00;101410.75;4989472;28;19948;-75
2023/08/12 07:36:07;;;;;;;;;;;;;;;19.33;100.00;101402.94;4986456;28;19926;-77
2023/08/12 07:38:33;;;;;;;;;;;;;;;19.32;100.00;101401.25;4987518;28;19936;-75
2023/08/12 07:40:58;;;;;;;;;;;;;;;19.34;100.00;101405.50;4974087;28;20412;-75
2023/08/12 07:43:23;;;;;;;;;;;;;;;19.43;100.00;101400.97;4998307;28;19925;-75
2023/08/12 07:45:52;;;;;;;;;;;;;;;19.40;100.00;101404.00;4986060;28;19928;-74
2023/08/12 07:48:17;;;;;;;;;;;;;;;19.38;100.00;101407.91;4986794;28;19921;-76
2023/08/12 07:50:43;;;;;;;;;;;;;;;19.41;100.00;101402.13;4986299;28;19922;-77
2023/08/12 07:53:08;;;;;;;;;;;;;;;19.39;100.00;101398.72;4985844;28;20285;-75
2023/08/12 07:55:34;;;;;;;;;;;;;;;19.46;100.00;101399.75;4983880;28;20295;-75
2023/08/12 07:57:59;;;;;;;;;;;;;;;19.41;100.00;101399.41;4985728;28;20396;-77
2023/08/12 08:00:24;;;;;;;;;;;;;;;19.42;100.00;101393.81;4989531;28;19925;-76
2023/08/12 08:02:49;;;;;;;;;;;;;;;19.43;100.00;101400.09;4975214;28;19925;-76
2023/08/12 08:05:14;;;;;;;;;;;;;;;19.50;100.00;101401.16;4992202;28;19925;-78
2023/08/12 08:07:40;;;;;;;;;;;;;;;19.52;100.00;101395.53;4989718;28;19932;-78
2023/08/12 08:10:05;;;;;;;;;;;;;;;19.55;100.00;101382.44;4989007;28;19926;-72
2023/08/12 08:12:30;;;;;;;;;;;;;;;19.56;100.00;101381.44;4976248;28;19921;-77
2023/08/12 08:14:55;;;;;;;;;;;;;;;19.63;100.00;101378.88;4990721;28;19976;-73
2023/08/12 08:17:21;;;;;;;;;;;;;;;19.65;100.00;101379.56;4989095;28;19925;-74
2023/08/12 08:19:46;;;;;;;;;;;;;;;19.67;100.00;101385.72;4987553;28;20246;-77
2023/08/12 08:22:11;;;;;;;;;;;;;;;19.74;100.00;101389.44;4988906;28;19929;-76
2023/08/12 08:24:37;;;;;;;;;;;;;;;19.77;100.00;101389.13;4974074;28;19998;-72
2023/08/12 08:27:04;;;;;;;;;;;;;;;19.82;100.00;101390.50;4991449;28;19926;-74
2023/08/12 08:29:29;;;;;;;;;;;;;;;19.66;100.00;101397.63;4991297;28;20333;-76
2023/08/12 08:31:54;;;;;;;;;;;;;;;19.74;100.00;101396.78;4991895;28;19929;-75
2023/08/12 08:34:20;;;;;;;;;;;;;;;19.78;100.00;101403.63;4991605;28;19921;-73
2023/08/12 08:36:45;;;;;;;;;;;;;;;19.85;100.00;101401.06;4991443;28;19926;-74
2023/08/12 08:39:10;;;;;;;;;;;;;;;19.85;100.00;101404.66;4990026;28;19933;-74
2023/08/12 08:41:39;;;;;;;;;;;;;;;19.97;100.00;101405.22;4973598;28;19926;-73
2023/08/12 08:44:07;;;;;;;;;;;;;;;20.01;100.00;101400.28;4985877;28;20039;-71
2023/08/12 08:46:32;;;;;;;;;;;;;;;20.02;100.00;101402.81;4989500;28;20510;-73
2023/08/12 08:48:58;;;;;;;;;;;;;;;20.25;100.00;101409.50;4979648;28;20420;-74
2023/08/12 08:51:23;;;;;;;;;;;;;;;20.35;100.00;101410.19;4991950;28;19932;-73
2023/08/12 08:53:48;;;;;;;;;;;;;;;20.31;100.00;101417.00;4975008;28;19922;-75
2023/08/12 08:56:14;;;;;;;;;;;;;;;20.46;100.00;101422.63;4987459;28;19934;-75
2023/08/12 08:58:39;;;;;;;;;;;;;;;20.39;100.00;101427.91;4972705;28;19926;-76
2023/08/12 09:01:06;;;;;;;;;;;;;;;20.50;100.00;101427.56;4987831;28;19922;-71
2023/08/12 09:03:31;;;;;;;;;;;;;;;20.58;100.00;101431.31;4990749;28;19921;-73
2023/08/12 09:05:56;;;;;;;;;;;;;;;20.45;100.00;101429.94;4988589;28;20443;-73
2023/08/12 09:08:22;;;;;;;;;;;;;;;20.41;100.00;101441.38;4980146;28;20364;-74
2023/08/12 09:10:47;;;;;;;;;;;;;;;20.35;100.00;101451.94;4987485;28;20047;-74
2023/08/12 09:13:14;;;;;;;;;;;;;;;20.43;100.00;101451.06;4979718;28;20438;-72
2023/08/12 09:15:39;;;;;;;;;;;;;;;20.44;100.00;101449.22;4969646;28;19947;-72
2023/08/12 09:18:06;;;;;;;;;;;;;;;20.41;100.00;101458.56;4982305;28;19926;-72
2023/08/12 09:20:31;;;;;;;;;;;;;;;20.43;100.00;101453.81;4984937;28;19917;-73
2023/08/12 09:22:57;;;;;;;;;;;;;;;20.63;100.00;101456.22;4973938;28;20477;-73
2023/08/12 09:25:23;;;;;;;;;;;;;;;20.58;100.00;101423.97;4986145;28;20494;-73
2023/08/12 09:27:48;;;;;;;;;;;;;;;21.01;100.00;101450.22;4975916;28;19971;-73
2023/08/12 09:30:13;;;;;;;;;;;;;;;21.24;100.00;101456.66;4983018;28;20089;-73
2023/08/12 09:32:38;;;;;;;;;;;;;;;21.24;100.00;101453.91;4963153;28;19925;-72
2023/08/12 09:35:05;;;;;;;;;;;;;;;21.08;100.00;101460.25;4975952;28;20284;-73
2023/08/12 09:37:31;;;;;;;;;;;;;;;21.01;100.00;101461.16;4988034;28;19965;-71
2023/08/12 09:39:56;;;;;;;;;;;;;;;21.12;100.00;101471.69;4988835;28;20036;-71
2023/08/12 09:42:21;;;;;;;;;;;;;;;20.97;100.00;101474.25;4977404;28;20466;-74
2023/08/12 09:44:46;;;;;;;;;;;;;;;21.00;100.00;101481.28;4987999;28;20372;-74
2023/08/12 09:47:12;;;;;;;;;;;;;;;20.97;100.00;101474.25;4979069;28;19922;-73
2023/08/12 09:49:38;;;;;;;;;;;;;;;21.00;100.00;101470.34;4983669;28;20207;-74
2023/08/12 09:52:03;;;;;;;;;;;;;;;21.08;100.00;101463.00;4986641;28;19921;-73
2023/08/12 09:54:28;;;;;;;;;;;;;;;21.30;100.00;101459.72;4969399;28;19931;-72
2023/08/12 09:56:58;;;;;;;;;;;;;;;21.64;100.00;101456.69;4980603;28;20071;-73
2023/08/12 09:59:24;;;;;;;;;;;;;;;22.13;100.00;101455.53;4978716;28;20010;-72
2023/08/12 10:01:50;;;;;;;;;;;;;;;22.17;100.00;101450.59;4978025;28;20168;-72
2023/08/12 10:04:16;;;;;;;;;;;;;;;22.30;100.00;101442.59;4961858;28;19989;-74
2023/08/12 10:06:42;;;;;;;;;;;;;;;22.30;100.00;101442.59;4970432;28;19926;-74
2023/08/12 10:09:11;;;;;;;;;;;;;;;22.16;100.00;101441.50;4966621;28;19928;-74
2023/08/12 10:11:36;;;;;;;;;;;;;;;22.27;100.00;101450.34;4974020;28;19929;-73
2023/08/12 10:14:04;;;;;;;;;;;;;;;22.13;100.00;101439.13;4972948;28;19933;-74
2023/08/12 10:16:30;;;;;;;;;;;;;;;21.98;100.00;101449.16;4973898;28;19969;-73
2023/08/12 10:18:55;;;;;;;;;;;;;;;22.03;100.00;101463.16;4968338;28;21513;-75
2023/08/12 10:21:20;;;;;;;;;;;;;;;21.76;100.00;101459.00;4968067;28;20649;-79
2023/08/12 10:23:46;;;;;;;;;;;;;;;21.71;100.00;101470.50;4975519;28;19926;-73
2023/08/12 10:26:11;;;;;;;;;;;;;;;21.63;100.00;101467.78;4974509;28;20109;-72
2023/08/12 10:28:39;;;;;;;;;;;;;;;21.43;100.00;101471.78;4981698;28;19929;-78
2023/08/12 10:31:05;;;;;;;;;;;;;;;21.48;100.00;101475.84;4978400;28;19980;-73
2023/08/12 10:33:34;;;;;;;;;;;;;;;21.50;100.00;101485.56;4986217;28;19929;-74
2023/08/12 10:35:59;;;;;;;;;;;;;;;21.43;100.00;101488.16;4986947;28;20416;-72
2023/08/12 10:38:25;;;;;;;;;;;;;;;21.26;100.00;101483.75;4975755;28;19921;-74
2023/08/12 10:40:51;;;;;;;;;;;;;;;21.17;100.00;101472.00;4975645;28;19921;-73
2023/08/12 10:43:16;;;;;;;;;;;;;;;21.05;100.00;101463.34;4986781;28;19965;-74
2023/08/12 10:45:49;;;;;;;;;;;;;;;21.21;100.00;101472.50;4970130;28;20062;-72
2023/08/12 10:48:20;;;;;;;;;;;;;;;21.49;100.00;101463.88;4984548;28;20003;-72
2023/08/12 10:50:48;;;;;;;;;;;;;;;22.44;100.00;101464.78;4981348;28;19945;-73
2023/08/12 10:53:29;;;;;;;;;;;;;;;23.09;100.00;101453.38;4971362;28;19929;-72
2023/08/12 10:55:55;;;;;;;;;;;;;;;23.35;100.00;101456.53;4969879;28;19940;-72
2023/08/12 10:58:24;;;;;;;;;;;;;;;23.60;100.00;101448.00;4982915;28;20905;-73
2023/08/12 11:00:52;;;;;;;;;;;;;;;24.02;100.00;101458.44;4985919;28;20435;-72
2023/08/12 11:03:18;;;;;;;;;;;;;;;23.80;100.00;101455.63;4984259;28;20041;-74
2023/08/12 11:05:43;;;;;;;;;;;;;;;23.43;100.00;101460.22;4973128;28;20331;-72
2023/08/12 11:08:09;;;;;;;;;;;;;;;23.09;100.00;101467.91;4976988;28;19952;-73
2023/08/12 11:10:34;;;;;;;;;;;;;;;22.75;100.00;101467.41;4982766;28;20304;-76
2023/08/12 11:12:59;;;;;;;;;;;;;;;22.89;100.00;101464.91;4974170;28;20019;-74
2023/08/12 11:15:36;;;;;;;;;;;;;;;23.39;100.00;101467.13;4965562;28;19928;-72
2023/08/12 11:18:08;;;;;;;;;;;;;;;23.86;100.00;101468.56;4982910;28;19926;-73
2023/08/12 11:20:34;;;;;;;;;;;;;;;23.89;100.00;101462.69;4984486;28;19929;-71
2023/08/12 11:22:59;;;;;;;;;;;;;;;24.19;100.00;101464.50;4974111;28;19925;-73
2023/08/12 11:25:25;;;;;;;;;;;;;;;24.68;100.00;101444.50;4987127;28;19956;-73
2023/08/12 11:27:50;;;;;;;;;;;;;;;24.85;100.00;101445.06;4986445;28;20379;-73
2023/08/12 11:30:16;;;;;;;;;;;;;;;24.69;100.00;101459.91;4976836;28;19964;-76
2023/08/12 11:32:42;;;;;;;;;;;;;;;24.76;100.00;101449.03;4988525;28;19932;-74
2023/08/12 11:35:08;;;;;;;;;;;;;;;24.96;100.00;101446.41;4990509;28;19925;-71
2023/08/12 11:37:35;;;;;;;;;;;;;;;25.62;100.00;101449.75;4991167;28;20392;-74
2023/08/12 11:40:02;;;;;;;;;;;;;;;25.68;100.00;101448.94;4978632;28;19926;-75
2023/08/12 11:42:27;;;;;;;;;;;;;;;26.24;97.94;101454.41;4995320;28;20023;-77
2023/08/12 11:44:52;;;;;;;;;;;;;;;26.03;89.78;101459.00;4975807;28;19931;-79
2023/08/12 11:47:18;;;;;;;;;;;;;;;26.14;86.50;101452.94;4974157;28;20028;-73
2023/08/12 11:49:43;;;;;;;;;;;;;;;26.29;82.50;101451.88;4980485;28;20092;-77
2023/08/12 11:52:09;;;;;;;;;;;;;;;26.58;76.89;101458.03;4996505;28;19927;-74
2023/08/12 11:54:34;;;;;;;;;;;;;;;26.86;77.89;101460.63;4992219;28;20335;-74
2023/08/12 11:57:00;;;;;;;;;;;;;;;27.66;75.16;101462.31;4969192;28;19929;-75
2023/08/12 11:59:26;;;;;;;;;;;;;;;27.52;72.63;101460.69;4992498;28;20023;-74
2023/08/12 12:01:51;;;;;;;;;;;;;;;27.18;81.00;101452.47;4990587;28;19921;-74
2023/08/12 12:04:19;;;;;;;;;;;;;;;27.40;74.78;101461.34;4991702;28;19921;-79
2023/08/12 12:06:44;;;;;;;;;;;;;;;27.13;72.47;101460.56;4992944;28;19926;-78
2023/08/12 12:09:09;;;;;;;;;;;;;;;27.67;68.79;101468.72;4992731;28;19937;-74
2023/08/12 12:11:38;;;;;;;;;;;;;;;27.99;72.48;101472.34;4990281;28;19968;-73
2023/08/12 12:14:04;;;;;;;;;;;;;;;27.74;66.69;101469.50;4976059;28;19922;-77
2023/08/12 12:16:42;;;;;;;;;;;;;;;27.97;64.61;101471.72;4988224;28;19967;-74
2023/08/12 12:19:17;;;;;;;;;;;;;;;27.43;73.61;101470.25;4976638;28;19929;-74